WAT9989 VVNB-ZUCK
Flight info
| Callsign | WAT9989 |
|---|---|
| Flight time | 1h 25m |
| Altitude | 38100 |
| Route | NAKHA3A NAKHA R474 LON DCT BSE V86 QNX A581 AGTIS W3 ASIPO W678 SEGDA SEGDA2H |
| Aircraft | B737/M-SDE2E3FGHIRWXY/LB1 |
Departure
| Time | 2026-04-29 18:07 |
|---|---|
| Airport | Noi Bai International Airport (VVNB) |
Arrival
| Time | 2026-04-29 19:33 |
|---|---|
| Airport | Chongqing Jiangbei International Airport (ZUCK) |
| Time | Latitude | Longitude | Altitude | Speed | Heading |
|---|---|---|---|---|---|
| 2026-04-29 17:37 | 21.21798 | 105.79649 | 48 ft | 0 kts | 199° |
| 2026-04-29 17:58 | 21.21819 | 105.79656 | 48 ft | 4 kts | 201° |
| 2026-04-29 17:58 | 21.21844 | 105.79667 | 44 ft | 4 kts | 206° |
| 2026-04-29 17:59 | 21.21867 | 105.79681 | 45 ft | 4 kts | 215° |
| 2026-04-29 17:59 | 21.21886 | 105.79700 | 46 ft | 4 kts | 246° |
| 2026-04-29 17:59 | 21.21889 | 105.79717 | 47 ft | 1 kts | 287° |
| 2026-04-29 17:59 | 21.21888 | 105.79720 | 47 ft | 0 kts | 287° |
| 2026-04-29 18:01 | 21.21889 | 105.79716 | 48 ft | 3 kts | 287° |
| 2026-04-29 18:01 | 21.21900 | 105.79677 | 48 ft | 7 kts | 287° |
| 2026-04-29 18:02 | 21.21914 | 105.79631 | 48 ft | 6 kts | 287° |
| 2026-04-29 18:02 | 21.21927 | 105.79586 | 46 ft | 6 kts | 288° |
| 2026-04-29 18:02 | 21.21957 | 105.79552 | 48 ft | 7 kts | 339° |
| 2026-04-29 18:02 | 21.22013 | 105.79548 | 47 ft | 10 kts | 345° |
| 2026-04-29 18:03 | 21.22052 | 105.79478 | 45 ft | 12 kts | 286° |
| 2026-04-29 18:03 | 21.22077 | 105.79391 | 48 ft | 12 kts | 287° |
| 2026-04-29 18:03 | 21.22101 | 105.79308 | 47 ft | 12 kts | 287° |
| 2026-04-29 18:03 | 21.22125 | 105.79226 | 45 ft | 11 kts | 288° |
| 2026-04-29 18:04 | 21.22149 | 105.79147 | 48 ft | 11 kts | 287° |
| 2026-04-29 18:04 | 21.22171 | 105.79070 | 46 ft | 11 kts | 287° |
| 2026-04-29 18:04 | 21.22192 | 105.78996 | 48 ft | 10 kts | 286° |
| 2026-04-29 18:04 | 21.22213 | 105.78923 | 47 ft | 10 kts | 288° |
| 2026-04-29 18:05 | 21.22234 | 105.78852 | 49 ft | 10 kts | 288° |
| 2026-04-29 18:05 | 21.22254 | 105.78783 | 47 ft | 10 kts | 286° |
| 2026-04-29 18:05 | 21.22274 | 105.78712 | 48 ft | 11 kts | 287° |
| 2026-04-29 18:05 | 21.22303 | 105.78627 | 46 ft | 11 kts | 303° |
| 2026-04-29 18:06 | 21.22370 | 105.78616 | 45 ft | 10 kts | 14° |
| 2026-04-29 18:06 | 21.22437 | 105.78643 | 49 ft | 10 kts | 37° |
| 2026-04-29 18:06 | 21.22441 | 105.78739 | 47 ft | 27 kts | 108° |
| 2026-04-29 18:06 | 21.22317 | 105.79167 | 49 ft | 94 kts | 107° |
| 2026-04-29 18:07 | 21.22064 | 105.80036 | 59 ft | 146 kts | 107° |
| 2026-04-29 18:07 | 21.21765 | 105.81088 | 547 ft | 148 kts | 106° |
| 2026-04-29 18:07 | 21.21461 | 105.82182 | 1022 ft | 159 kts | 105° |
| 2026-04-29 18:07 | 21.21140 | 105.83343 | 1555 ft | 163 kts | 104° |
| 2026-04-29 18:08 | 21.20812 | 105.84522 | 2216 ft | 169 kts | 104° |
| 2026-04-29 18:08 | 21.20472 | 105.85751 | 2896 ft | 175 kts | 103° |
| 2026-04-29 18:08 | 21.20119 | 105.87023 | 3480 ft | 187 kts | 104° |
| 2026-04-29 18:08 | 21.19730 | 105.88406 | 3985 ft | 202 kts | 104° |
| 2026-04-29 18:09 | 21.19316 | 105.89903 | 4390 ft | 216 kts | 104° |
| 2026-04-29 18:09 | 21.18883 | 105.91484 | 4862 ft | 229 kts | 104° |
| 2026-04-29 18:09 | 21.18411 | 105.93220 | 5115 ft | 257 kts | 104° |
| 2026-04-29 18:09 | 21.17889 | 105.95117 | 5624 ft | 272 kts | 104° |
| 2026-04-29 18:10 | 21.17485 | 105.97114 | 6351 ft | 279 kts | 90° |
| 2026-04-29 18:10 | 21.17875 | 105.99140 | 7052 ft | 283 kts | 60° |
| 2026-04-29 18:10 | 21.19148 | 106.00740 | 7787 ft | 285 kts | 36° |
| 2026-04-29 18:10 | 21.20811 | 106.01895 | 8607 ft | 289 kts | 26° |
| 2026-04-29 18:11 | 21.22569 | 106.02944 | 9378 ft | 297 kts | 25° |
| 2026-04-29 18:11 | 21.24399 | 106.04050 | 10117 ft | 306 kts | 25° |
| 2026-04-29 18:11 | 21.26300 | 106.05212 | 10571 ft | 327 kts | 26° |
| 2026-04-29 18:11 | 21.28359 | 106.06476 | 10759 ft | 354 kts | 26° |
| 2026-04-29 18:12 | 21.30557 | 106.07835 | 11091 ft | 373 kts | 27° |
| 2026-04-29 18:12 | 21.32822 | 106.09247 | 11729 ft | 380 kts | 27° |
| 2026-04-29 18:12 | 21.35114 | 106.10681 | 12520 ft | 383 kts | 27° |
| 2026-04-29 18:12 | 21.37423 | 106.12128 | 13293 ft | 387 kts | 27° |
| 2026-04-29 18:13 | 21.39759 | 106.13590 | 14005 ft | 391 kts | 27° |
| 2026-04-29 18:13 | 21.42093 | 106.15051 | 14642 ft | 396 kts | 27° |
| 2026-04-29 18:13 | 21.44482 | 106.16547 | 15301 ft | 400 kts | 27° |
| 2026-04-29 18:13 | 21.46898 | 106.18059 | 15959 ft | 404 kts | 27° |
| 2026-04-29 18:14 | 21.49342 | 106.19589 | 16612 ft | 409 kts | 27° |
| 2026-04-29 18:14 | 21.51809 | 106.21133 | 17252 ft | 413 kts | 27° |
| 2026-04-29 18:14 | 21.54303 | 106.22695 | 17886 ft | 417 kts | 27° |
| 2026-04-29 18:14 | 21.56821 | 106.24274 | 18485 ft | 421 kts | 27° |
| 2026-04-29 18:15 | 21.59328 | 106.25845 | 18999 ft | 425 kts | 27° |
| 2026-04-29 18:15 | 21.61892 | 106.27454 | 19514 ft | 429 kts | 27° |
| 2026-04-29 18:15 | 21.64479 | 106.29078 | 20062 ft | 432 kts | 27° |
| 2026-04-29 18:15 | 21.67086 | 106.30715 | 20570 ft | 436 kts | 27° |
| 2026-04-29 18:16 | 21.69720 | 106.32368 | 21043 ft | 440 kts | 27° |
| 2026-04-29 18:16 | 21.72373 | 106.34033 | 21533 ft | 443 kts | 27° |
| 2026-04-29 18:16 | 21.75047 | 106.35707 | 22022 ft | 446 kts | 27° |
| 2026-04-29 18:16 | 21.77736 | 106.37391 | 22498 ft | 449 kts | 27° |
| 2026-04-29 18:17 | 21.80447 | 106.39090 | 22933 ft | 453 kts | 27° |
| 2026-04-29 18:17 | 21.83140 | 106.40778 | 23340 ft | 456 kts | 27° |
| 2026-04-29 18:17 | 21.85892 | 106.42505 | 23720 ft | 459 kts | 27° |
| 2026-04-29 18:17 | 21.88658 | 106.44243 | 24052 ft | 462 kts | 27° |
| 2026-04-29 18:18 | 21.91441 | 106.45991 | 24397 ft | 464 kts | 27° |
| 2026-04-29 18:18 | 21.94232 | 106.47746 | 24747 ft | 466 kts | 27° |
| 2026-04-29 18:18 | 21.97026 | 106.49523 | 25157 ft | 466 kts | 30° |
| 2026-04-29 18:18 | 21.99671 | 106.51563 | 25531 ft | 470 kts | 36° |
| 2026-04-29 18:19 | 22.02201 | 106.53815 | 25838 ft | 473 kts | 38° |
| 2026-04-29 18:19 | 22.04671 | 106.56103 | 26134 ft | 476 kts | 38° |
| 2026-04-29 18:19 | 22.07195 | 106.58419 | 26437 ft | 478 kts | 38° |
| 2026-04-29 18:19 | 22.09756 | 106.60716 | 26742 ft | 480 kts | 37° |
| 2026-04-29 18:20 | 22.12345 | 106.62994 | 27061 ft | 482 kts | 37° |
| 2026-04-29 18:20 | 22.14953 | 106.65273 | 27361 ft | 483 kts | 37° |
| 2026-04-29 18:20 | 22.17567 | 106.67566 | 27655 ft | 486 kts | 38° |
| 2026-04-29 18:20 | 22.20081 | 106.70020 | 27931 ft | 489 kts | 42° |
| 2026-04-29 18:21 | 22.22501 | 106.72615 | 28175 ft | 492 kts | 44° |
| 2026-04-29 18:21 | 22.24904 | 106.75265 | 28456 ft | 494 kts | 44° |
| 2026-04-29 18:21 | 22.27290 | 106.77868 | 28748 ft | 495 kts | 43° |
| 2026-04-29 18:21 | 22.29742 | 106.80489 | 29016 ft | 497 kts | 43° |
| 2026-04-29 18:22 | 22.32261 | 106.83052 | 29240 ft | 498 kts | 36° |
| 2026-04-29 18:22 | 22.35245 | 106.84902 | 29429 ft | 494 kts | 18° |
| 2026-04-29 18:22 | 22.38548 | 106.85854 | 29708 ft | 490 kts | 5° |
| 2026-04-29 18:22 | 22.41925 | 106.85927 | 29941 ft | 484 kts | 350° |
| 2026-04-29 18:23 | 22.45257 | 106.85415 | 30224 ft | 483 kts | 347° |
| 2026-04-29 18:23 | 22.48572 | 106.84817 | 30507 ft | 483 kts | 347° |
| 2026-04-29 18:23 | 22.51878 | 106.84198 | 30855 ft | 481 kts | 347° |
| 2026-04-29 18:23 | 22.55124 | 106.83598 | 31231 ft | 479 kts | 347° |
| 2026-04-29 18:24 | 22.58415 | 106.83006 | 31518 ft | 480 kts | 347° |
| 2026-04-29 18:24 | 22.61711 | 106.82430 | 31827 ft | 480 kts | 348° |
| 2026-04-29 18:24 | 22.65000 | 106.81867 | 32208 ft | 478 kts | 348° |
| 2026-04-29 18:24 | 22.68277 | 106.81314 | 32621 ft | 476 kts | 348° |
| 2026-04-29 18:25 | 22.71543 | 106.80765 | 32979 ft | 475 kts | 348° |
| 2026-04-29 18:25 | 22.74804 | 106.80216 | 33351 ft | 474 kts | 348° |
| 2026-04-29 18:25 | 22.78061 | 106.79669 | 33762 ft | 472 kts | 348° |
| 2026-04-29 18:25 | 22.81304 | 106.79122 | 34179 ft | 471 kts | 348° |
| 2026-04-29 18:26 | 22.84487 | 106.78585 | 34536 ft | 469 kts | 348° |
| 2026-04-29 18:26 | 22.87714 | 106.78039 | 34828 ft | 469 kts | 348° |
| 2026-04-29 18:26 | 22.90937 | 106.77494 | 35099 ft | 469 kts | 348° |
| 2026-04-29 18:26 | 22.94157 | 106.76948 | 35428 ft | 467 kts | 348° |
| 2026-04-29 18:27 | 22.97364 | 106.76405 | 35785 ft | 466 kts | 348° |
| 2026-04-29 18:27 | 23.00559 | 106.75864 | 36099 ft | 464 kts | 347° |
| 2026-04-29 18:27 | 23.03753 | 106.75322 | 36370 ft | 464 kts | 347° |
| 2026-04-29 18:27 | 23.06937 | 106.74782 | 36641 ft | 464 kts | 347° |
| 2026-04-29 18:28 | 23.10122 | 106.74241 | 36944 ft | 462 kts | 347° |
| 2026-04-29 18:28 | 23.13256 | 106.73709 | 37236 ft | 461 kts | 347° |
| 2026-04-29 18:28 | 23.16419 | 106.73172 | 37520 ft | 460 kts | 347° |
| 2026-04-29 18:28 | 23.19578 | 106.72635 | 37831 ft | 458 kts | 347° |
| 2026-04-29 18:29 | 23.22722 | 106.72101 | 38095 ft | 458 kts | 347° |
| 2026-04-29 18:29 | 23.24807 | 106.71746 | 38216 ft | 459 kts | 347° |
| 2026-04-29 18:29 | 23.29047 | 106.71023 | 38218 ft | 462 kts | 347° |
| 2026-04-29 18:30 | 23.35373 | 106.69946 | 38217 ft | 458 kts | 347° |
| 2026-04-29 18:30 | 23.41602 | 106.68885 | 38228 ft | 454 kts | 348° |
| 2026-04-29 18:31 | 23.47841 | 106.67820 | 38234 ft | 454 kts | 348° |
| 2026-04-29 18:31 | 23.54107 | 106.66748 | 38228 ft | 457 kts | 347° |
| 2026-04-29 18:32 | 23.60408 | 106.65670 | 38215 ft | 459 kts | 348° |
| 2026-04-29 18:32 | 23.69779 | 106.64067 | 38214 ft | 454 kts | 347° |
| 2026-04-29 18:33 | 23.75999 | 106.63001 | 38221 ft | 451 kts | 347° |
| 2026-04-29 18:33 | 23.82187 | 106.61939 | 38229 ft | 451 kts | 347° |
| 2026-04-29 18:34 | 23.87370 | 106.61047 | 38229 ft | 456 kts | 347° |
| 2026-04-29 18:34 | 23.94678 | 106.59786 | 38214 ft | 457 kts | 347° |
| 2026-04-29 18:35 | 24.00932 | 106.58670 | 38206 ft | 454 kts | 347° |
| 2026-04-29 18:35 | 24.07144 | 106.57553 | 38218 ft | 451 kts | 347° |
| 2026-04-29 18:36 | 24.13327 | 106.56442 | 38232 ft | 450 kts | 347° |
| 2026-04-29 18:36 | 24.19494 | 106.55335 | 38228 ft | 449 kts | 347° |
| 2026-04-29 18:37 | 24.25615 | 106.54237 | 38223 ft | 449 kts | 347° |
| 2026-04-29 18:37 | 24.31777 | 106.53130 | 38236 ft | 449 kts | 347° |
| 2026-04-29 18:38 | 24.37958 | 106.52018 | 38236 ft | 451 kts | 347° |
| 2026-04-29 18:38 | 24.44155 | 106.50902 | 38242 ft | 452 kts | 347° |
| 2026-04-29 18:39 | 24.50331 | 106.49789 | 38252 ft | 454 kts | 347° |
| 2026-04-29 18:39 | 24.56575 | 106.48663 | 38243 ft | 455 kts | 347° |
| 2026-04-29 18:40 | 24.62815 | 106.47538 | 38244 ft | 454 kts | 347° |
| 2026-04-29 18:40 | 24.69033 | 106.46415 | 38255 ft | 452 kts | 347° |
| 2026-04-29 18:41 | 24.81472 | 106.44162 | 38257 ft | 457 kts | 347° |
| 2026-04-29 18:42 | 24.87752 | 106.43024 | 38263 ft | 458 kts | 347° |
| 2026-04-29 18:42 | 24.94045 | 106.41882 | 38271 ft | 459 kts | 347° |
| 2026-04-29 18:43 | 25.00300 | 106.40746 | 38272 ft | 458 kts | 347° |
| 2026-04-29 18:43 | 25.06585 | 106.39604 | 38269 ft | 456 kts | 346° |
| 2026-04-29 18:44 | 25.12835 | 106.38467 | 38262 ft | 454 kts | 346° |
| 2026-04-29 18:44 | 25.19053 | 106.37333 | 38258 ft | 452 kts | 346° |
| 2026-04-29 18:45 | 25.25238 | 106.36204 | 38268 ft | 449 kts | 346° |
| 2026-04-29 18:45 | 25.31353 | 106.35087 | 38270 ft | 448 kts | 346° |
| 2026-04-29 18:46 | 25.37491 | 106.33965 | 38294 ft | 446 kts | 346° |
| 2026-04-29 18:46 | 25.43582 | 106.32850 | 38284 ft | 442 kts | 346° |
| 2026-04-29 18:47 | 25.49641 | 106.31739 | 38284 ft | 440 kts | 346° |
| 2026-04-29 18:47 | 25.55629 | 106.30641 | 38277 ft | 438 kts | 346° |
| 2026-04-29 18:48 | 25.61639 | 106.29536 | 38294 ft | 438 kts | 346° |
| 2026-04-29 18:48 | 25.67649 | 106.28431 | 38292 ft | 438 kts | 345° |
| 2026-04-29 18:49 | 25.73648 | 106.27327 | 38293 ft | 436 kts | 345° |
| 2026-04-29 18:49 | 25.79590 | 106.26233 | 38291 ft | 435 kts | 345° |
| 2026-04-29 18:50 | 25.85556 | 106.25133 | 38299 ft | 434 kts | 345° |
| 2026-04-29 18:50 | 25.91506 | 106.24034 | 38310 ft | 433 kts | 345° |
| 2026-04-29 18:51 | 25.97443 | 106.22937 | 38315 ft | 432 kts | 345° |
| 2026-04-29 18:51 | 26.03327 | 106.21849 | 38306 ft | 431 kts | 345° |
| 2026-04-29 18:52 | 26.09234 | 106.20755 | 38308 ft | 430 kts | 345° |
| 2026-04-29 18:52 | 26.15124 | 106.19663 | 38295 ft | 429 kts | 345° |
| 2026-04-29 18:53 | 26.21002 | 106.18573 | 38301 ft | 428 kts | 345° |
| 2026-04-29 18:53 | 26.26829 | 106.17490 | 38313 ft | 428 kts | 345° |
| 2026-04-29 18:54 | 26.32702 | 106.16398 | 38303 ft | 427 kts | 345° |
| 2026-04-29 18:54 | 26.38565 | 106.15307 | 38293 ft | 427 kts | 345° |
| 2026-04-29 18:55 | 26.44426 | 106.14214 | 38298 ft | 427 kts | 345° |
| 2026-04-29 18:55 | 26.50248 | 106.13127 | 38291 ft | 427 kts | 345° |
| 2026-04-29 18:56 | 26.56114 | 106.12030 | 38309 ft | 427 kts | 344° |
| 2026-04-29 18:56 | 26.61980 | 106.10934 | 38302 ft | 427 kts | 344° |
| 2026-04-29 18:57 | 26.67844 | 106.09835 | 38288 ft | 427 kts | 344° |
| 2026-04-29 18:57 | 26.73709 | 106.08735 | 38299 ft | 428 kts | 344° |
| 2026-04-29 18:58 | 26.79550 | 106.07639 | 38287 ft | 429 kts | 344° |
| 2026-04-29 18:58 | 26.85441 | 106.06532 | 38337 ft | 430 kts | 344° |
| 2026-04-29 18:59 | 26.91345 | 106.05422 | 38301 ft | 430 kts | 343° |
| 2026-04-29 18:59 | 26.97253 | 106.04359 | 38280 ft | 433 kts | 349° |
| 2026-04-29 19:00 | 27.00264 | 106.04621 | 38303 ft | 449 kts | 6° |
| 2026-04-29 19:00 | 27.03230 | 106.05859 | 38280 ft | 465 kts | 22° |
| 2026-04-29 19:00 | 27.05896 | 106.07995 | 38309 ft | 479 kts | 37° |
| 2026-04-29 19:00 | 27.08011 | 106.10946 | 38298 ft | 494 kts | 54° |
| 2026-04-29 19:01 | 27.11150 | 106.17846 | 38301 ft | 498 kts | 59° |
| 2026-04-29 19:01 | 27.14168 | 106.24836 | 38303 ft | 497 kts | 58° |
| 2026-04-29 19:02 | 27.16752 | 106.30584 | 38311 ft | 496 kts | 57° |
| 2026-04-29 19:02 | 27.20408 | 106.38613 | 38290 ft | 498 kts | 57° |
| 2026-04-29 19:03 | 27.23558 | 106.45540 | 38307 ft | 498 kts | 57° |
| 2026-04-29 19:03 | 27.26708 | 106.52473 | 38314 ft | 499 kts | 57° |
| 2026-04-29 19:04 | 27.29838 | 106.59378 | 38318 ft | 499 kts | 57° |
| 2026-04-29 19:04 | 27.32986 | 106.66333 | 38320 ft | 500 kts | 57° |
| 2026-04-29 19:05 | 27.34755 | 106.69654 | 38276 ft | 488 kts | 42° |
| 2026-04-29 19:05 | 27.37191 | 106.72184 | 38336 ft | 469 kts | 25° |
| 2026-04-29 19:05 | 27.40011 | 106.73903 | 38319 ft | 456 kts | 13° |
| 2026-04-29 19:05 | 27.43001 | 106.74922 | 38301 ft | 442 kts | 0° |
| 2026-04-29 19:06 | 27.48989 | 106.75191 | 38313 ft | 433 kts | 352° |
| 2026-04-29 19:07 | 27.58043 | 106.75065 | 38295 ft | 435 kts | 352° |
| 2026-04-29 19:07 | 27.64112 | 106.75037 | 38343 ft | 437 kts | 352° |
| 2026-04-29 19:08 | 27.70192 | 106.75041 | 38309 ft | 436 kts | 352° |
| 2026-04-29 19:08 | 27.76214 | 106.75051 | 38294 ft | 435 kts | 352° |
| 2026-04-29 19:09 | 27.82256 | 106.75060 | 38304 ft | 434 kts | 352° |
| 2026-04-29 19:09 | 27.88280 | 106.75067 | 38303 ft | 432 kts | 352° |
| 2026-04-29 19:10 | 27.94290 | 106.75075 | 38330 ft | 431 kts | 351° |
| 2026-04-29 19:10 | 28.00253 | 106.75081 | 38158 ft | 433 kts | 351° |
| 2026-04-29 19:10 | 28.03288 | 106.75081 | 37567 ft | 436 kts | 351° |
| 2026-04-29 19:11 | 28.06312 | 106.75086 | 36908 ft | 434 kts | 351° |
| 2026-04-29 19:11 | 28.09333 | 106.75091 | 36239 ft | 434 kts | 351° |
| 2026-04-29 19:11 | 28.12352 | 106.75094 | 35494 ft | 435 kts | 351° |
| 2026-04-29 19:11 | 28.15391 | 106.75096 | 34687 ft | 439 kts | 351° |
| 2026-04-29 19:12 | 28.18462 | 106.75097 | 33781 ft | 443 kts | 352° |
| 2026-04-29 19:12 | 28.21562 | 106.75096 | 32833 ft | 447 kts | 352° |
| 2026-04-29 19:12 | 28.24683 | 106.75097 | 31921 ft | 449 kts | 352° |
| 2026-04-29 19:12 | 28.26749 | 106.75098 | 31492 ft | 447 kts | 352° |
| 2026-04-29 19:13 | 28.30855 | 106.75102 | 30599 ft | 443 kts | 352° |
| 2026-04-29 19:13 | 28.33903 | 106.74938 | 29869 ft | 435 kts | 347° |
| 2026-04-29 19:13 | 28.36880 | 106.74524 | 29183 ft | 428 kts | 345° |
| 2026-04-29 19:13 | 28.39809 | 106.74054 | 28489 ft | 422 kts | 345° |
| 2026-04-29 19:14 | 28.42698 | 106.73581 | 27845 ft | 416 kts | 345° |
| 2026-04-29 19:14 | 28.45553 | 106.73122 | 27214 ft | 412 kts | 345° |
| 2026-04-29 19:14 | 28.48380 | 106.72681 | 26576 ft | 409 kts | 345° |
| 2026-04-29 19:14 | 28.51188 | 106.72253 | 25927 ft | 407 kts | 345° |
| 2026-04-29 19:15 | 28.53957 | 106.71837 | 25277 ft | 406 kts | 345° |
| 2026-04-29 19:15 | 28.56754 | 106.71418 | 24627 ft | 405 kts | 345° |
| 2026-04-29 19:15 | 28.59548 | 106.71001 | 23959 ft | 405 kts | 345° |
| 2026-04-29 19:15 | 28.62338 | 106.70584 | 23231 ft | 404 kts | 346° |
| 2026-04-29 19:16 | 28.65117 | 106.70170 | 22548 ft | 401 kts | 346° |
| 2026-04-29 19:16 | 28.67870 | 106.69760 | 21870 ft | 397 kts | 347° |
| 2026-04-29 19:16 | 28.70598 | 106.69353 | 21222 ft | 393 kts | 347° |
| 2026-04-29 19:16 | 28.73308 | 106.69099 | 20603 ft | 392 kts | 353° |
| 2026-04-29 19:17 | 28.76033 | 106.69070 | 19966 ft | 389 kts | 355° |
| 2026-04-29 19:17 | 28.78692 | 106.69103 | 19337 ft | 386 kts | 356° |
| 2026-04-29 19:17 | 28.81365 | 106.69143 | 18714 ft | 383 kts | 356° |
| 2026-04-29 19:17 | 28.84015 | 106.69171 | 18026 ft | 379 kts | 356° |
| 2026-04-29 19:18 | 28.86631 | 106.69187 | 17386 ft | 373 kts | 356° |
| 2026-04-29 19:18 | 28.88345 | 106.69191 | 16976 ft | 370 kts | 356° |
| 2026-04-29 19:18 | 28.91762 | 106.69192 | 16176 ft | 364 kts | 356° |
| 2026-04-29 19:18 | 28.94284 | 106.69190 | 15562 ft | 361 kts | 356° |
| 2026-04-29 19:19 | 28.96786 | 106.69186 | 14979 ft | 358 kts | 356° |
| 2026-04-29 19:19 | 28.99267 | 106.69184 | 14384 ft | 356 kts | 356° |
| 2026-04-29 19:19 | 29.01690 | 106.69182 | 13786 ft | 353 kts | 356° |
| 2026-04-29 19:19 | 29.04140 | 106.69181 | 13192 ft | 349 kts | 357° |
| 2026-04-29 19:20 | 29.06559 | 106.69179 | 12659 ft | 345 kts | 357° |
| 2026-04-29 19:20 | 29.08947 | 106.69175 | 12092 ft | 342 kts | 357° |
| 2026-04-29 19:20 | 29.11323 | 106.69173 | 11512 ft | 340 kts | 358° |
| 2026-04-29 19:20 | 29.13683 | 106.69167 | 10946 ft | 338 kts | 357° |
| 2026-04-29 19:21 | 29.15994 | 106.68966 | 10647 ft | 326 kts | 351° |
| 2026-04-29 19:21 | 29.18208 | 106.68620 | 10399 ft | 315 kts | 350° |
| 2026-04-29 19:21 | 29.20304 | 106.68267 | 10251 ft | 303 kts | 350° |
| 2026-04-29 19:21 | 29.22349 | 106.67929 | 10115 ft | 291 kts | 350° |
| 2026-04-29 19:22 | 29.24316 | 106.67614 | 9908 ft | 282 kts | 351° |
| 2026-04-29 19:22 | 29.26258 | 106.67311 | 9571 ft | 279 kts | 351° |
| 2026-04-29 19:22 | 29.28144 | 106.67023 | 9462 ft | 268 kts | 351° |
| 2026-04-29 19:22 | 29.29963 | 106.66747 | 9336 ft | 259 kts | 351° |
| 2026-04-29 19:23 | 29.31706 | 106.66484 | 9250 ft | 245 kts | 351° |
| 2026-04-29 19:23 | 29.33346 | 106.66237 | 9142 ft | 233 kts | 351° |
| 2026-04-29 19:23 | 29.34878 | 106.65757 | 9018 ft | 228 kts | 327° |
| 2026-04-29 19:23 | 29.35938 | 106.64467 | 8789 ft | 228 kts | 297° |
| 2026-04-29 19:24 | 29.36498 | 106.62812 | 8547 ft | 219 kts | 286° |
| 2026-04-29 19:24 | 29.36918 | 106.61171 | 8294 ft | 211 kts | 285° |
| 2026-04-29 19:24 | 29.37319 | 106.59580 | 8042 ft | 204 kts | 285° |
| 2026-04-29 19:24 | 29.37717 | 106.58028 | 7807 ft | 202 kts | 285° |
| 2026-04-29 19:25 | 29.38174 | 106.56507 | 7569 ft | 204 kts | 300° |
| 2026-04-29 19:25 | 29.39254 | 106.55496 | 7340 ft | 205 kts | 343° |
| 2026-04-29 19:25 | 29.40652 | 106.55508 | 7146 ft | 202 kts | 14° |
| 2026-04-29 19:25 | 29.42003 | 106.55915 | 6919 ft | 206 kts | 17° |
| 2026-04-29 19:26 | 29.43391 | 106.56381 | 6686 ft | 208 kts | 17° |
| 2026-04-29 19:26 | 29.44776 | 106.56859 | 6431 ft | 207 kts | 18° |
| 2026-04-29 19:26 | 29.46116 | 106.57325 | 6430 ft | 199 kts | 18° |
| 2026-04-29 19:26 | 29.47479 | 106.57801 | 6183 ft | 208 kts | 18° |
| 2026-04-29 19:27 | 29.48877 | 106.58287 | 5900 ft | 210 kts | 18° |
| 2026-04-29 19:27 | 29.50269 | 106.58772 | 5620 ft | 208 kts | 18° |
| 2026-04-29 19:27 | 29.51644 | 106.59250 | 5337 ft | 205 kts | 18° |
| 2026-04-29 19:27 | 29.52989 | 106.59718 | 5087 ft | 205 kts | 18° |
| 2026-04-29 19:28 | 29.54353 | 106.60192 | 4815 ft | 202 kts | 18° |
| 2026-04-29 19:28 | 29.55653 | 106.60644 | 4545 ft | 189 kts | 18° |
| 2026-04-29 19:28 | 29.56882 | 106.61071 | 4295 ft | 181 kts | 19° |
| 2026-04-29 19:28 | 29.58080 | 106.61489 | 4066 ft | 180 kts | 19° |
| 2026-04-29 19:29 | 29.59272 | 106.61904 | 3832 ft | 177 kts | 19° |
| 2026-04-29 19:29 | 29.60420 | 106.62303 | 3655 ft | 167 kts | 20° |
| 2026-04-29 19:29 | 29.61503 | 106.62679 | 3412 ft | 158 kts | 20° |
| 2026-04-29 19:29 | 29.62535 | 106.63039 | 3179 ft | 151 kts | 20° |
| 2026-04-29 19:30 | 29.63506 | 106.63382 | 2974 ft | 147 kts | 20° |
| 2026-04-29 19:30 | 29.64481 | 106.63723 | 2807 ft | 148 kts | 20° |
| 2026-04-29 19:30 | 29.65460 | 106.64065 | 2609 ft | 146 kts | 20° |
| 2026-04-29 19:30 | 29.66432 | 106.64402 | 2410 ft | 145 kts | 19° |
| 2026-04-29 19:31 | 29.67380 | 106.64727 | 2204 ft | 139 kts | 19° |
| 2026-04-29 19:31 | 29.68299 | 106.65048 | 2019 ft | 137 kts | 18° |
| 2026-04-29 19:31 | 29.69221 | 106.65372 | 1842 ft | 139 kts | 17° |
| 2026-04-29 19:31 | 29.70138 | 106.65693 | 1649 ft | 136 kts | 17° |
| 2026-04-29 19:32 | 29.71033 | 106.66003 | 1458 ft | 136 kts | 17° |
| 2026-04-29 19:32 | 29.71931 | 106.66314 | 1347 ft | 130 kts | 17° |
| 2026-04-29 19:32 | 29.72717 | 106.66591 | 1330 ft | 102 kts | 17° |
| 2026-04-29 19:32 | 29.73283 | 106.66784 | 1322 ft | 69 kts | 16° |
| 2026-04-29 19:33 | 29.73585 | 106.66857 | 1317 ft | 30 kts | 354° |
| 2026-04-29 19:33 | 29.73741 | 106.66823 | 1318 ft | 15 kts | 330° |
| 2026-04-29 19:33 | 29.73773 | 106.66759 | 1319 ft | 8 kts | 289° |
| 2026-04-29 19:33 | 29.73789 | 106.66698 | 1320 ft | 7 kts | 279° |
| 2026-04-29 19:34 | 29.73771 | 106.66648 | 1323 ft | 7 kts | 218° |
| 2026-04-29 19:34 | 29.73726 | 106.66628 | 1321 ft | 7 kts | 198° |
| 2026-04-29 19:34 | 29.73679 | 106.66611 | 1322 ft | 8 kts | 195° |
| 2026-04-29 19:34 | 29.73619 | 106.66592 | 1322 ft | 9 kts | 196° |
| 2026-04-29 19:35 | 29.73556 | 106.66570 | 1323 ft | 10 kts | 197° |
| 2026-04-29 19:35 | 29.73492 | 106.66548 | 1323 ft | 10 kts | 197° |
| 2026-04-29 19:35 | 29.73416 | 106.66522 | 1324 ft | 14 kts | 197° |
| 2026-04-29 19:35 | 29.73316 | 106.66487 | 1325 ft | 16 kts | 197° |
| 2026-04-29 19:36 | 29.73214 | 106.66451 | 1326 ft | 15 kts | 197° |
| 2026-04-29 19:36 | 29.73116 | 106.66417 | 1327 ft | 14 kts | 196° |
| 2026-04-29 19:36 | 29.73022 | 106.66385 | 1327 ft | 14 kts | 197° |
| 2026-04-29 19:36 | 29.72933 | 106.66354 | 1328 ft | 13 kts | 197° |
| 2026-04-29 19:37 | 29.72864 | 106.66296 | 1329 ft | 13 kts | 248° |
| 2026-04-29 19:37 | 29.72839 | 106.66237 | 1330 ft | 12 kts | 230° |
| 2026-04-29 19:37 | 29.72735 | 106.66187 | 1331 ft | 12 kts | 197° |
| 2026-04-29 19:37 | 29.72656 | 106.66159 | 1332 ft | 12 kts | 197° |
| 2026-04-29 19:38 | 29.72579 | 106.66133 | 1332 ft | 11 kts | 196° |
| 2026-04-29 19:38 | 29.72545 | 106.66067 | 1333 ft | 11 kts | 284° |
| 2026-04-29 19:38 | 29.72570 | 106.65986 | 1335 ft | 11 kts | 289° |
| 2026-04-29 19:38 | 29.72593 | 106.65907 | 1337 ft | 10 kts | 288° |
| 2026-04-29 19:39 | 29.72633 | 106.65843 | 1342 ft | 10 kts | 325° |
| 2026-04-29 19:39 | 29.72696 | 106.65818 | 1341 ft | 10 kts | 8° |
| 2026-04-29 19:39 | 29.72743 | 106.65865 | 1344 ft | 8 kts | 58° |
| 2026-04-29 19:39 | 29.72754 | 106.65885 | 1339 ft | 1 kts | 58° |
| 2026-04-29 19:40 | 29.72755 | 106.65887 | 1339 ft | 0 kts | 58° |